createdAt,value
2023-04-16T00:04:23.314Z,94.20
2023-04-16T00:09:23.028Z,93.30
2023-04-16T00:14:23.037Z,73.80
2023-04-16T00:19:23.005Z,82.70
2023-04-16T00:24:22.910Z,79.50
2023-04-16T00:29:22.848Z,69.80
2023-04-16T00:34:22.803Z,81.10
2023-04-16T00:39:22.844Z,74.10
2023-04-16T00:44:22.717Z,73.00
2023-04-16T00:49:32.533Z,78.80
2023-04-16T00:54:22.610Z,75.40
2023-04-16T00:59:22.604Z,84.60
2023-04-16T01:04:22.654Z,94.10
2023-04-16T01:09:22.516Z,88.90
2023-04-16T01:14:22.515Z,96.70
2023-04-16T01:19:22.320Z,97.40
2023-04-16T01:24:22.294Z,91.20
2023-04-16T01:29:22.212Z,90.40
2023-04-16T01:34:22.233Z,93.40
2023-04-16T01:39:22.320Z,75.80
2023-04-16T01:44:22.168Z,70.30
2023-04-16T01:49:23.099Z,70.20
2023-04-16T01:54:23.132Z,80.70
2023-04-16T01:59:22.222Z,78.90
2023-04-16T02:04:21.943Z,78.50
2023-04-16T02:09:21.791Z,80.70
2023-04-16T02:14:21.810Z,89.90
2023-04-16T02:19:21.740Z,84.40
2023-04-16T02:24:21.674Z,97.40
2023-04-16T02:29:21.607Z,94.40
2023-04-16T02:34:21.506Z,87.70
2023-04-16T02:39:21.550Z,92.70
2023-04-16T02:44:21.426Z,88.80
2023-04-16T02:49:21.379Z,86.70
2023-04-16T02:54:21.319Z,89.50
2023-04-16T02:59:21.463Z,89.80
2023-04-16T03:04:21.400Z,78.70
2023-04-16T03:09:21.328Z,79.00
2023-04-16T03:14:21.083Z,72.00
2023-04-16T03:19:23.186Z,80.00
2023-04-16T03:24:21.003Z,82.70
2023-04-16T03:29:20.920Z,84.00
2023-04-16T03:34:20.902Z,85.30
2023-04-16T03:39:20.807Z,75.70
2023-04-16T03:44:20.796Z,87.00
2023-04-16T03:49:20.725Z,71.00
2023-04-16T03:54:22.592Z,75.90
2023-04-16T03:59:20.628Z,87.40
2023-04-16T04:04:20.774Z,85.00
2023-04-16T04:09:20.667Z,103.00
2023-04-16T04:14:20.481Z,94.30
2023-04-16T04:19:20.514Z,85.80
2023-04-16T04:24:20.576Z,90.70
2023-04-16T04:29:20.294Z,94.40
2023-04-16T04:34:20.310Z,95.90
2023-04-16T04:39:20.205Z,87.80
2023-04-16T04:44:20.162Z,86.30
2023-04-16T04:49:20.062Z,93.40
2023-04-16T04:54:20.031Z,100.80
2023-04-16T04:59:19.994Z,94.00
2023-04-16T05:04:20.011Z,88.30
2023-04-16T05:09:19.827Z,82.60
2023-04-16T05:14:19.836Z,79.80
2023-04-16T05:19:19.747Z,80.00
2023-04-16T05:24:28.558Z,79.10
2023-04-16T05:29:19.642Z,79.00
2023-04-16T05:34:19.625Z,81.70
2023-04-16T05:39:19.544Z,72.80
2023-04-16T05:44:19.521Z,80.70
2023-04-16T05:49:19.580Z,77.00
2023-04-16T05:54:19.587Z,82.50
2023-04-16T05:59:19.335Z,80.60
2023-04-16T06:04:19.409Z,81.20
2023-04-16T06:09:19.280Z,71.20
2023-04-16T06:14:19.212Z,68.50
2023-04-16T06:19:19.141Z,68.40
2023-04-16T06:24:19.106Z,71.80
2023-04-16T06:29:19.004Z,69.10
2023-04-16T06:34:18.961Z,67.90
2023-04-16T06:39:18.900Z,68.80
2023-04-16T06:44:19.013Z,65.00
2023-04-16T06:49:18.778Z,62.20
2023-04-16T06:54:18.748Z,61.60
2023-04-16T06:59:18.710Z,57.00
2023-04-16T07:04:18.795Z,61.10
2023-04-16T07:09:18.721Z,65.10
2023-04-16T07:14:18.537Z,64.20
2023-04-16T07:19:18.504Z,62.00
2023-04-16T07:24:18.586Z,73.20
2023-04-16T07:29:18.295Z,61.70
2023-04-16T07:34:18.302Z,67.70
2023-04-16T07:39:18.286Z,62.80
2023-04-16T07:44:18.275Z,62.30
2023-04-16T07:49:28.352Z,63.60
2023-04-16T07:54:18.611Z,62.70
2023-04-16T07:59:22.772Z,64.30
2023-04-16T08:04:19.874Z,54.90
2023-04-16T08:09:17.968Z,61.80
2023-04-16T08:14:18.009Z,53.90
2023-04-16T08:19:17.992Z,55.10
2023-04-16T08:24:17.941Z,54.00
2023-04-16T08:29:17.798Z,54.70
2023-04-16T08:34:17.810Z,60.70
2023-04-16T08:39:17.674Z,54.80
2023-04-16T08:44:17.617Z,49.30
2023-04-16T08:49:17.537Z,48.60
2023-04-16T08:54:17.534Z,56.10
2023-04-16T08:59:17.526Z,42.20
2023-04-16T09:04:17.478Z,39.90
2023-04-16T09:09:17.348Z,40.80
2023-04-16T09:14:17.440Z,39.00
2023-04-16T09:19:17.428Z,39.90
2023-04-16T09:24:17.324Z,38.60
2023-04-16T09:29:25.576Z,37.20
2023-04-16T09:34:17.026Z,42.20
2023-04-16T09:39:17.018Z,44.10
2023-04-16T09:44:16.929Z,35.30
2023-04-16T09:49:17.015Z,41.80
2023-04-16T09:54:16.958Z,37.10
2023-04-16T09:59:16.841Z,39.90
2023-04-16T10:04:17.868Z,37.00
2023-04-16T10:09:16.627Z,32.70
2023-04-16T10:14:16.537Z,34.40
2023-04-16T10:19:16.639Z,30.00
2023-04-16T10:24:16.538Z,31.10
2023-04-16T10:29:16.605Z,29.80
2023-04-16T10:34:16.638Z,28.60
2023-04-16T10:39:17.205Z,29.70
2023-04-16T10:44:18.566Z,28.00
2023-04-16T10:49:16.585Z,26.80
2023-04-16T10:54:16.270Z,29.00
2023-04-16T10:59:16.236Z,31.20
2023-04-16T11:04:16.250Z,27.20
2023-04-16T11:09:16.258Z,29.20
2023-04-16T11:14:16.276Z,25.90
2023-04-16T11:19:15.855Z,27.50
2023-04-16T11:24:15.973Z,25.10
2023-04-16T11:29:15.786Z,20.60
2023-04-16T11:34:15.752Z,19.40
2023-04-16T11:39:15.646Z,22.70
2023-04-16T11:44:15.675Z,22.40
2023-04-16T11:49:15.680Z,23.50
2023-04-16T11:54:16.657Z,22.70
2023-04-16T11:59:15.690Z,22.80
2023-04-16T12:04:15.736Z,21.80
2023-04-16T12:09:16.598Z,23.10
2023-04-16T12:14:15.380Z,23.30
2023-04-16T12:19:15.313Z,24.00
2023-04-16T12:24:24.095Z,23.50
2023-04-16T12:29:15.129Z,22.70
2023-04-16T12:34:15.075Z,24.60
2023-04-16T12:39:14.951Z,22.80
2023-04-16T12:44:14.940Z,23.40
2023-04-16T12:49:14.958Z,23.20
2023-04-16T12:54:14.899Z,23.70
2023-04-16T12:59:14.829Z,26.30
2023-04-16T13:04:14.904Z,22.20
2023-04-16T13:09:14.630Z,21.50
2023-04-16T13:14:14.582Z,24.80
2023-04-16T13:19:14.559Z,23.50
2023-04-16T13:24:14.622Z,22.20
2023-04-16T13:29:14.534Z,19.70
2023-04-16T13:34:14.495Z,21.40
2023-04-16T13:39:14.475Z,21.10
2023-04-16T13:44:14.275Z,21.40
2023-04-16T13:49:14.198Z,20.80
2023-04-16T13:54:14.158Z,20.60
2023-04-16T13:59:14.226Z,19.00
2023-04-16T14:04:14.204Z,26.10
2023-04-16T14:09:14.062Z,25.70
2023-04-16T14:14:14.018Z,26.10
2023-04-16T14:19:13.914Z,27.60
2023-04-16T14:24:13.907Z,25.60
2023-04-16T14:29:13.787Z,23.30
2023-04-16T14:34:13.708Z,25.00
2023-04-16T14:39:13.886Z,24.70
2023-04-16T14:44:13.604Z,24.70
2023-04-16T14:49:13.790Z,25.00
2023-04-16T14:54:13.514Z,27.40
2023-04-16T14:59:13.446Z,23.30
2023-04-16T15:04:13.459Z,24.40
2023-04-16T15:09:13.433Z,22.50
2023-04-16T15:14:13.448Z,21.60
2023-04-16T15:19:13.229Z,21.40
2023-04-16T15:24:13.328Z,22.50
2023-04-16T15:29:14.266Z,23.50
2023-04-16T15:34:13.187Z,18.10
2023-04-16T15:39:13.189Z,15.50
2023-04-16T15:44:12.979Z,17.20
2023-04-16T15:49:12.868Z,17.90
2023-04-16T15:54:12.859Z,17.30
2023-04-16T15:59:13.095Z,16.70
2023-04-16T16:04:12.908Z,16.50
2023-04-16T16:09:12.970Z,21.00
2023-04-16T16:14:13.823Z,16.30
2023-04-16T16:19:33.715Z,15.50
2023-04-16T16:24:12.505Z,15.70
2023-04-16T16:29:12.630Z,14.70
2023-04-16T16:34:19.965Z,13.90
2023-04-16T16:39:13.370Z,16.30
2023-04-16T16:44:12.333Z,14.30
2023-04-16T16:49:12.522Z,15.90
2023-04-16T16:54:12.333Z,13.60
2023-04-16T16:59:12.355Z,16.60
2023-04-16T17:04:12.161Z,12.90
2023-04-16T17:09:12.180Z,14.90
2023-04-16T17:14:11.954Z,16.70
2023-04-16T17:19:12.107Z,17.50
2023-04-16T17:24:12.230Z,15.90
2023-04-16T17:29:11.808Z,14.50
2023-04-16T17:34:11.918Z,15.60
2023-04-16T17:39:11.777Z,17.80
2023-04-16T17:44:12.024Z,15.70
2023-04-16T17:49:11.630Z,15.60
2023-04-16T17:54:11.957Z,16.10
2023-04-16T17:59:11.675Z,20.80
2023-04-16T18:04:11.918Z,27.70
2023-04-16T18:09:11.383Z,33.40
2023-04-16T18:14:11.824Z,33.00
2023-04-16T18:19:11.375Z,35.00
2023-04-16T18:24:12.524Z,38.10
2023-04-16T18:29:12.373Z,37.70
2023-04-16T18:34:11.358Z,39.70
2023-04-16T18:39:11.056Z,43.00
2023-04-16T18:44:11.004Z,43.20
2023-04-16T18:49:11.133Z,41.40
2023-04-16T18:54:10.955Z,39.00
2023-04-16T18:59:11.205Z,42.80
2023-04-16T19:04:10.957Z,44.00
2023-04-16T19:09:11.720Z,41.00
2023-04-16T19:14:10.682Z,45.40
2023-04-16T19:19:10.822Z,39.90
2023-04-16T19:24:10.546Z,43.20
2023-04-16T19:29:10.769Z,37.50
2023-04-16T19:34:10.497Z,37.50
2023-04-16T19:39:11.654Z,37.10
2023-04-16T19:44:10.375Z,36.10
2023-04-16T19:49:10.630Z,36.20
2023-04-16T19:54:10.237Z,35.30
2023-04-16T19:59:11.415Z,35.50
2023-04-16T20:04:10.280Z,29.90
2023-04-16T20:09:10.315Z,33.60
2023-04-16T20:14:10.033Z,28.80
2023-04-16T20:19:10.331Z,30.90
2023-04-16T20:24:09.914Z,33.20
2023-04-16T20:29:10.295Z,28.40
2023-04-16T20:34:09.776Z,31.30
2023-04-16T20:39:09.994Z,33.30
2023-04-16T20:44:09.693Z,28.60
2023-04-16T20:49:09.960Z,33.80
2023-04-16T20:54:09.572Z,31.30
2023-04-16T20:59:09.860Z,31.90
2023-04-16T21:04:09.765Z,29.60
2023-04-16T21:09:09.597Z,30.40
2023-04-16T21:14:09.393Z,37.90
2023-04-16T21:19:12.755Z,34.70
2023-04-16T21:24:10.249Z,37.60
2023-04-16T21:29:09.310Z,35.40
2023-04-16T21:34:09.223Z,40.10
2023-04-16T21:39:09.243Z,41.80
2023-04-16T21:44:09.015Z,44.00
2023-04-16T21:49:09.270Z,51.00
2023-04-16T21:54:08.930Z,47.10
2023-04-16T21:59:09.008Z,44.70
2023-04-16T22:04:08.853Z,41.00
2023-04-16T22:09:08.900Z,47.30
2023-04-16T22:14:08.785Z,50.70
2023-04-16T22:19:08.752Z,52.90
2023-04-16T22:24:08.570Z,57.50
2023-04-16T22:29:08.631Z,58.40
2023-04-16T22:34:08.470Z,61.00
2023-04-16T22:39:08.542Z,60.70
2023-04-16T22:44:08.381Z,60.10
2023-04-16T22:49:08.331Z,66.90
2023-04-16T22:54:08.285Z,60.00
2023-04-16T22:59:08.197Z,62.50
2023-04-16T23:04:08.197Z,65.70
2023-04-16T23:09:08.112Z,64.40
2023-04-16T23:14:08.145Z,58.60
2023-04-16T23:19:07.976Z,62.10
2023-04-16T23:24:07.973Z,71.40
2023-04-16T23:29:07.919Z,64.00
2023-04-16T23:34:07.917Z,68.60
2023-04-16T23:39:11.349Z,70.60
2023-04-16T23:44:07.738Z,66.10
2023-04-16T23:49:07.668Z,68.20
2023-04-16T23:54:07.634Z,72.10
2023-04-16T23:59:07.556Z,71.00
